sensor_id;sensor_type;location;lat;lon;timestamp;temperature;humidity
1083;DHT22;530;51.448;7.238;2023-06-24T00:01:26;17.20;99.90
1083;DHT22;530;51.448;7.238;2023-06-24T00:03:52;17.20;99.90
1083;DHT22;530;51.448;7.238;2023-06-24T00:06:21;17.10;99.90
1083;DHT22;530;51.448;7.238;2023-06-24T00:08:50;17.10;99.90
1083;DHT22;530;51.448;7.238;2023-06-24T00:11:16;17.10;99.90
1083;DHT22;530;51.448;7.238;2023-06-24T00:13:42;17.10;99.90
1083;DHT22;530;51.448;7.238;2023-06-24T00:16:09;17.10;99.90
1083;DHT22;530;51.448;7.238;2023-06-24T00:18:36;17.10;99.90
1083;DHT22;530;51.448;7.238;2023-06-24T00:21:03;17.10;99.90
1083;DHT22;530;51.448;7.238;2023-06-24T00:23:29;17.10;99.90
1083;DHT22;530;51.448;7.238;2023-06-24T00:26:00;17.10;99.90
1083;DHT22;530;51.448;7.238;2023-06-24T00:28:26;17.20;99.90
1083;DHT22;530;51.448;7.238;2023-06-24T00:30:52;17.20;99.90
1083;DHT22;530;51.448;7.238;2023-06-24T00:33:18;17.10;99.90
1083;DHT22;530;51.448;7.238;2023-06-24T00:35:46;17.10;99.90
1083;DHT22;530;51.448;7.238;2023-06-24T00:38:12;17.00;99.90
1083;DHT22;530;51.448;7.238;2023-06-24T00:40:38;17.00;99.90
1083;DHT22;530;51.448;7.238;2023-06-24T00:43:05;17.00;99.90
1083;DHT22;530;51.448;7.238;2023-06-24T00:45:31;16.90;99.90
1083;DHT22;530;51.448;7.238;2023-06-24T00:48:00;16.80;99.90
1083;DHT22;530;51.448;7.238;2023-06-24T00:50:26;16.80;99.90
1083;DHT22;530;51.448;7.238;2023-06-24T00:52:52;16.70;99.90
1083;DHT22;530;51.448;7.238;2023-06-24T00:55:18;16.80;99.90
1083;DHT22;530;51.448;7.238;2023-06-24T00:57:49;16.70;99.90
1083;DHT22;530;51.448;7.238;2023-06-24T01:00:18;16.70;99.90
1083;DHT22;530;51.448;7.238;2023-06-24T01:02:44;16.60;99.90
1083;DHT22;530;51.448;7.238;2023-06-24T01:05:11;16.60;99.90
1083;DHT22;530;51.448;7.238;2023-06-24T01:07:38;16.50;99.90
1083;DHT22;530;51.448;7.238;2023-06-24T01:10:05;16.50;99.90
1083;DHT22;530;51.448;7.238;2023-06-24T01:12:34;16.50;99.90
1083;DHT22;530;51.448;7.238;2023-06-24T01:15:00;16.40;99.90
1083;DHT22;530;51.448;7.238;2023-06-24T01:17:53;16.40;99.90
1083;DHT22;530;51.448;7.238;2023-06-24T01:23:24;16.40;99.90
1083;DHT22;530;51.448;7.238;2023-06-24T01:31:47;16.30;99.90
1083;DHT22;530;51.448;7.238;2023-06-24T01:34:41;16.30;99.90
1083;DHT22;530;51.448;7.238;2023-06-24T01:40:00;16.30;99.90
1083;DHT22;530;51.448;7.238;2023-06-24T01:42:44;16.30;99.90
1083;DHT22;530;51.448;7.238;2023-06-24T01:45:15;16.30;99.90
1083;DHT22;530;51.448;7.238;2023-06-24T01:47:46;16.30;99.90
1083;DHT22;530;51.448;7.238;2023-06-24T01:50:13;16.20;99.90
1083;DHT22;530;51.448;7.238;2023-06-24T01:52:43;16.20;99.90
1083;DHT22;530;51.448;7.238;2023-06-24T01:55:12;16.10;99.90
1083;DHT22;530;51.448;7.238;2023-06-24T01:57:41;16.10;99.90
1083;DHT22;530;51.448;7.238;2023-06-24T02:00:09;16.20;99.90
1083;DHT22;530;51.448;7.238;2023-06-24T02:02:36;16.20;99.90
1083;DHT22;530;51.448;7.238;2023-06-24T02:05:03;16.40;99.90
1083;DHT22;530;51.448;7.238;2023-06-24T02:07:31;16.40;99.90
1083;DHT22;530;51.448;7.238;2023-06-24T02:09:59;16.40;99.90
1083;DHT22;530;51.448;7.238;2023-06-24T02:12:26;16.40;99.90
1083;DHT22;530;51.448;7.238;2023-06-24T02:14:55;16.40;99.90
1083;DHT22;530;51.448;7.238;2023-06-24T02:17:24;16.50;99.90
1083;DHT22;530;51.448;7.238;2023-06-24T02:19:51;16.60;99.90
1083;DHT22;530;51.448;7.238;2023-06-24T02:22:18;16.60;99.90
1083;DHT22;530;51.448;7.238;2023-06-24T02:24:44;16.70;99.90
1083;DHT22;530;51.448;7.238;2023-06-24T02:27:11;16.80;99.90
1083;DHT22;530;51.448;7.238;2023-06-24T02:29:37;16.90;99.90
1083;DHT22;530;51.448;7.238;2023-06-24T02:32:05;16.80;99.90
1083;DHT22;530;51.448;7.238;2023-06-24T02:34:31;16.70;99.90
1083;DHT22;530;51.448;7.238;2023-06-24T02:36:57;16.60;99.90
1083;DHT22;530;51.448;7.238;2023-06-24T02:39:23;16.60;99.90
1083;DHT22;530;51.448;7.238;2023-06-24T02:41:49;16.60;99.90
1083;DHT22;530;51.448;7.238;2023-06-24T02:44:15;16.70;99.90
1083;DHT22;530;51.448;7.238;2023-06-24T02:46:42;16.70;99.90
1083;DHT22;530;51.448;7.238;2023-06-24T02:49:10;16.70;99.90
1083;DHT22;530;51.448;7.238;2023-06-24T02:51:39;16.80;99.90
1083;DHT22;530;51.448;7.238;2023-06-24T02:54:05;16.80;99.90
1083;DHT22;530;51.448;7.238;2023-06-24T02:56:31;16.80;99.90
1083;DHT22;530;51.448;7.238;2023-06-24T02:58:58;16.80;99.90
1083;DHT22;530;51.448;7.238;2023-06-24T03:01:24;16.80;99.90
1083;DHT22;530;51.448;7.238;2023-06-24T03:03:55;16.80;99.90
1083;DHT22;530;51.448;7.238;2023-06-24T03:06:22;16.80;99.90
1083;DHT22;530;51.448;7.238;2023-06-24T03:08:49;16.90;99.90
1083;DHT22;530;51.448;7.238;2023-06-24T03:11:16;16.90;99.90
1083;DHT22;530;51.448;7.238;2023-06-24T03:13:42;17.00;99.90
1083;DHT22;530;51.448;7.238;2023-06-24T03:16:08;17.00;99.90
1083;DHT22;530;51.448;7.238;2023-06-24T03:18:41;17.00;99.90
1083;DHT22;530;51.448;7.238;2023-06-24T03:21:07;17.10;99.90
1083;DHT22;530;51.448;7.238;2023-06-24T03:23:33;17.10;99.90
1083;DHT22;530;51.448;7.238;2023-06-24T03:25:58;17.10;99.90
1083;DHT22;530;51.448;7.238;2023-06-24T03:28:24;17.10;99.90
1083;DHT22;530;51.448;7.238;2023-06-24T03:30:50;17.10;99.90
1083;DHT22;530;51.448;7.238;2023-06-24T03:33:16;17.10;99.90
1083;DHT22;530;51.448;7.238;2023-06-24T03:35:45;17.10;99.90
1083;DHT22;530;51.448;7.238;2023-06-24T03:38:11;17.10;99.90
1083;DHT22;530;51.448;7.238;2023-06-24T03:40:37;17.10;99.90
1083;DHT22;530;51.448;7.238;2023-06-24T03:43:03;17.20;99.90
1083;DHT22;530;51.448;7.238;2023-06-24T03:45:28;17.10;99.90
1083;DHT22;530;51.448;7.238;2023-06-24T03:47:54;17.20;99.90
1083;DHT22;530;51.448;7.238;2023-06-24T03:50:20;17.20;99.90
1083;DHT22;530;51.448;7.238;2023-06-24T03:52:45;17.20;99.90
1083;DHT22;530;51.448;7.238;2023-06-24T03:55:11;17.20;99.90
1083;DHT22;530;51.448;7.238;2023-06-24T03:57:37;17.20;99.90
1083;DHT22;530;51.448;7.238;2023-06-24T04:00:03;17.20;99.90
1083;DHT22;530;51.448;7.238;2023-06-24T04:02:41;17.30;99.90
1083;DHT22;530;51.448;7.238;2023-06-24T04:05:08;17.30;99.90
1083;DHT22;530;51.448;7.238;2023-06-24T04:07:34;17.30;99.90
1083;DHT22;530;51.448;7.238;2023-06-24T04:10:02;17.40;99.90
1083;DHT22;530;51.448;7.238;2023-06-24T04:12:29;17.40;99.90
1083;DHT22;530;51.448;7.238;2023-06-24T04:14:55;17.50;99.90
1083;DHT22;530;51.448;7.238;2023-06-24T04:17:20;17.50;99.90
1083;DHT22;530;51.448;7.238;2023-06-24T04:19:46;17.50;99.90
1083;DHT22;530;51.448;7.238;2023-06-24T04:22:12;17.60;99.90
1083;DHT22;530;51.448;7.238;2023-06-24T04:24:37;17.60;99.90
1083;DHT22;530;51.448;7.238;2023-06-24T04:27:03;17.70;99.90
1083;DHT22;530;51.448;7.238;2023-06-24T04:29:29;17.80;99.90
1083;DHT22;530;51.448;7.238;2023-06-24T04:31:55;17.80;99.90
1083;DHT22;530;51.448;7.238;2023-06-24T04:34:20;17.90;99.90
1083;DHT22;530;51.448;7.238;2023-06-24T04:36:46;18.00;99.90
1083;DHT22;530;51.448;7.238;2023-06-24T04:39:12;18.00;99.90
1083;DHT22;530;51.448;7.238;2023-06-24T04:41:37;18.00;99.90
1083;DHT22;530;51.448;7.238;2023-06-24T04:44:03;18.00;99.90
1083;DHT22;530;51.448;7.238;2023-06-24T04:46:29;18.00;99.90
1083;DHT22;530;51.448;7.238;2023-06-24T04:48:55;18.10;99.90
1083;DHT22;530;51.448;7.238;2023-06-24T04:51:20;18.10;99.90
1083;DHT22;530;51.448;7.238;2023-06-24T04:53:46;18.10;99.90
1083;DHT22;530;51.448;7.238;2023-06-24T04:56:11;18.10;99.90
1083;DHT22;530;51.448;7.238;2023-06-24T04:58:37;18.20;99.90
1083;DHT22;530;51.448;7.238;2023-06-24T05:01:03;18.20;99.90
1083;DHT22;530;51.448;7.238;2023-06-24T05:03:28;18.20;99.90
1083;DHT22;530;51.448;7.238;2023-06-24T05:05:54;18.20;99.90
1083;DHT22;530;51.448;7.238;2023-06-24T05:08:20;18.30;99.90
1083;DHT22;530;51.448;7.238;2023-06-24T05:10:45;18.40;99.90
1083;DHT22;530;51.448;7.238;2023-06-24T05:13:11;18.40;99.90
1083;DHT22;530;51.448;7.238;2023-06-24T05:15:37;18.40;99.90
1083;DHT22;530;51.448;7.238;2023-06-24T05:18:02;18.40;99.90
1083;DHT22;530;51.448;7.238;2023-06-24T05:20:28;18.40;99.90
1083;DHT22;530;51.448;7.238;2023-06-24T05:22:54;18.40;99.90
1083;DHT22;530;51.448;7.238;2023-06-24T05:25:20;18.50;99.90
1083;DHT22;530;51.448;7.238;2023-06-24T05:27:46;18.60;99.90
1083;DHT22;530;51.448;7.238;2023-06-24T05:30:12;18.70;99.90
1083;DHT22;530;51.448;7.238;2023-06-24T05:32:38;18.90;99.90
1083;DHT22;530;51.448;7.238;2023-06-24T05:35:04;18.90;99.90
1083;DHT22;530;51.448;7.238;2023-06-24T05:37:30;18.90;99.90
1083;DHT22;530;51.448;7.238;2023-06-24T05:39:56;19.00;99.90
1083;DHT22;530;51.448;7.238;2023-06-24T05:42:22;19.00;99.90
1083;DHT22;530;51.448;7.238;2023-06-24T05:44:48;19.00;99.90
1083;DHT22;530;51.448;7.238;2023-06-24T05:47:14;19.00;99.90
1083;DHT22;530;51.448;7.238;2023-06-24T05:49:40;19.10;99.90
1083;DHT22;530;51.448;7.238;2023-06-24T05:52:06;19.20;99.90
1083;DHT22;530;51.448;7.238;2023-06-24T05:54:31;19.20;99.90
1083;DHT22;530;51.448;7.238;2023-06-24T05:56:57;19.30;99.90
1083;DHT22;530;51.448;7.238;2023-06-24T05:59:23;19.50;99.90
1083;DHT22;530;51.448;7.238;2023-06-24T06:01:48;19.70;99.90
1083;DHT22;530;51.448;7.238;2023-06-24T06:04:14;19.90;99.90
1083;DHT22;530;51.448;7.238;2023-06-24T06:06:40;20.00;99.90
1083;DHT22;530;51.448;7.238;2023-06-24T06:09:06;20.10;99.90
1083;DHT22;530;51.448;7.238;2023-06-24T06:11:31;20.20;99.90
1083;DHT22;530;51.448;7.238;2023-06-24T06:13:57;20.20;99.90
1083;DHT22;530;51.448;7.238;2023-06-24T06:16:23;20.20;99.90
1083;DHT22;530;51.448;7.238;2023-06-24T06:18:49;20.10;99.90
1083;DHT22;530;51.448;7.238;2023-06-24T06:21:15;20.10;99.90
1083;DHT22;530;51.448;7.238;2023-06-24T06:23:41;20.10;99.90
1083;DHT22;530;51.448;7.238;2023-06-24T06:26:06;20.10;99.90
1083;DHT22;530;51.448;7.238;2023-06-24T06:28:32;20.20;99.90
1083;DHT22;530;51.448;7.238;2023-06-24T06:30:58;20.30;99.90
1083;DHT22;530;51.448;7.238;2023-06-24T06:33:23;20.60;99.90
1083;DHT22;530;51.448;7.238;2023-06-24T06:35:49;20.70;99.90
1083;DHT22;530;51.448;7.238;2023-06-24T06:38:15;20.90;99.90
1083;DHT22;530;51.448;7.238;2023-06-24T06:40:40;20.90;99.90
1083;DHT22;530;51.448;7.238;2023-06-24T06:43:06;20.90;99.90
1083;DHT22;530;51.448;7.238;2023-06-24T06:45:32;20.90;99.90
1083;DHT22;530;51.448;7.238;2023-06-24T06:47:57;20.90;99.90
1083;DHT22;530;51.448;7.238;2023-06-24T06:50:23;20.90;99.90
1083;DHT22;530;51.448;7.238;2023-06-24T06:52:49;20.90;99.90
1083;DHT22;530;51.448;7.238;2023-06-24T06:55:14;20.90;99.90
1083;DHT22;530;51.448;7.238;2023-06-24T06:57:40;21.00;99.90
1083;DHT22;530;51.448;7.238;2023-06-24T07:00:06;21.10;99.90
1083;DHT22;530;51.448;7.238;2023-06-24T07:02:32;21.10;99.90
1083;DHT22;530;51.448;7.238;2023-06-24T07:04:58;21.20;99.90
1083;DHT22;530;51.448;7.238;2023-06-24T07:07:24;21.30;99.90
1083;DHT22;530;51.448;7.238;2023-06-24T07:09:50;21.50;99.90
1083;DHT22;530;51.448;7.238;2023-06-24T07:12:16;21.60;99.90
1083;DHT22;530;51.448;7.238;2023-06-24T07:14:41;21.60;99.90
1083;DHT22;530;51.448;7.238;2023-06-24T07:17:07;21.70;99.90
1083;DHT22;530;51.448;7.238;2023-06-24T07:19:33;21.70;99.90
1083;DHT22;530;51.448;7.238;2023-06-24T07:21:59;21.70;99.90
1083;DHT22;530;51.448;7.238;2023-06-24T07:24:24;21.80;99.90
1083;DHT22;530;51.448;7.238;2023-06-24T07:26:50;21.80;99.90
1083;DHT22;530;51.448;7.238;2023-06-24T07:29:16;21.90;99.90
1083;DHT22;530;51.448;7.238;2023-06-24T07:31:41;22.10;99.90
1083;DHT22;530;51.448;7.238;2023-06-24T07:34:07;22.10;99.90
1083;DHT22;530;51.448;7.238;2023-06-24T07:36:33;22.20;99.90
1083;DHT22;530;51.448;7.238;2023-06-24T07:38:58;22.30;99.90
1083;DHT22;530;51.448;7.238;2023-06-24T07:41:24;22.40;99.90
1083;DHT22;530;51.448;7.238;2023-06-24T07:43:50;22.50;99.90
1083;DHT22;530;51.448;7.238;2023-06-24T07:46:15;22.60;99.90
1083;DHT22;530;51.448;7.238;2023-06-24T07:48:41;22.60;99.90
1083;DHT22;530;51.448;7.238;2023-06-24T07:51:07;22.60;99.90
1083;DHT22;530;51.448;7.238;2023-06-24T07:53:33;22.60;99.90
1083;DHT22;530;51.448;7.238;2023-06-24T07:55:59;22.60;99.90
1083;DHT22;530;51.448;7.238;2023-06-24T07:58:24;22.70;99.90
1083;DHT22;530;51.448;7.238;2023-06-24T08:00:50;22.70;99.90
1083;DHT22;530;51.448;7.238;2023-06-24T08:03:16;22.70;99.90
1083;DHT22;530;51.448;7.238;2023-06-24T08:05:42;22.80;99.90
1083;DHT22;530;51.448;7.238;2023-06-24T08:08:08;22.90;99.90
1083;DHT22;530;51.448;7.238;2023-06-24T08:10:34;22.90;99.90
1083;DHT22;530;51.448;7.238;2023-06-24T08:12:59;23.00;99.90
1083;DHT22;530;51.448;7.238;2023-06-24T08:15:25;23.10;99.90
1083;DHT22;530;51.448;7.238;2023-06-24T08:17:52;23.10;99.90
1083;DHT22;530;51.448;7.238;2023-06-24T08:20:20;23.00;99.90
1083;DHT22;530;51.448;7.238;2023-06-24T08:22:46;23.00;99.90
1083;DHT22;530;51.448;7.238;2023-06-24T08:25:11;23.10;99.90
1083;DHT22;530;51.448;7.238;2023-06-24T08:27:37;23.20;99.90
1083;DHT22;530;51.448;7.238;2023-06-24T08:30:04;23.30;99.90
1083;DHT22;530;51.448;7.238;2023-06-24T08:32:30;23.40;99.90
1083;DHT22;530;51.448;7.238;2023-06-24T08:34:56;23.40;99.90
1083;DHT22;530;51.448;7.238;2023-06-24T08:37:22;23.50;99.90
1083;DHT22;530;51.448;7.238;2023-06-24T08:39:47;23.50;99.90
1083;DHT22;530;51.448;7.238;2023-06-24T08:42:13;23.50;99.90
1083;DHT22;530;51.448;7.238;2023-06-24T08:44:39;23.70;99.90
1083;DHT22;530;51.448;7.238;2023-06-24T08:47:04;23.80;99.90
1083;DHT22;530;51.448;7.238;2023-06-24T08:49:31;23.80;99.90
1083;DHT22;530;51.448;7.238;2023-06-24T08:52:04;23.90;99.90
1083;DHT22;530;51.448;7.238;2023-06-24T08:54:34;23.90;99.90
1083;DHT22;530;51.448;7.238;2023-06-24T08:57:02;24.00;99.90
1083;DHT22;530;51.448;7.238;2023-06-24T08:59:31;24.00;99.90
1083;DHT22;530;51.448;7.238;2023-06-24T09:01:57;24.10;99.90
1083;DHT22;530;51.448;7.238;2023-06-24T09:04:22;24.00;99.90
1083;DHT22;530;51.448;7.238;2023-06-24T09:06:48;24.10;99.90
1083;DHT22;530;51.448;7.238;2023-06-24T09:09:21;24.10;99.90
1083;DHT22;530;51.448;7.238;2023-06-24T09:11:58;24.20;99.90
1083;DHT22;530;51.448;7.238;2023-06-24T09:14:25;24.30;99.90
1083;DHT22;530;51.448;7.238;2023-06-24T09:19:25;24.60;99.90
1083;DHT22;530;51.448;7.238;2023-06-24T09:22:04;24.60;99.90
1083;DHT22;530;51.448;7.238;2023-06-24T09:24:31;24.70;99.90
1083;DHT22;530;51.448;7.238;2023-06-24T09:26:57;24.80;99.90
1083;DHT22;530;51.448;7.238;2023-06-24T09:29:27;24.80;99.90
1083;DHT22;530;51.448;7.238;2023-06-24T09:31:53;24.90;99.90
1083;DHT22;530;51.448;7.238;2023-06-24T09:34:19;25.00;99.90
1083;DHT22;530;51.448;7.238;2023-06-24T09:36:54;25.00;99.90
1083;DHT22;530;51.448;7.238;2023-06-24T09:39:20;25.10;99.90
1083;DHT22;530;51.448;7.238;2023-06-24T09:42:00;25.10;99.90
1083;DHT22;530;51.448;7.238;2023-06-24T09:44:27;25.10;99.90
1083;DHT22;530;51.448;7.238;2023-06-24T09:46:53;25.20;99.90
1083;DHT22;530;51.448;7.238;2023-06-24T09:49:19;25.30;99.90
1083;DHT22;530;51.448;7.238;2023-06-24T09:51:50;25.40;99.90
1083;DHT22;530;51.448;7.238;2023-06-24T09:54:19;25.50;99.90
1083;DHT22;530;51.448;7.238;2023-06-24T09:56:48;25.50;99.90
1083;DHT22;530;51.448;7.238;2023-06-24T09:59:15;25.60;99.90
1083;DHT22;530;51.448;7.238;2023-06-24T10:01:44;25.60;99.90
1083;DHT22;530;51.448;7.238;2023-06-24T10:04:16;25.70;99.90
1083;DHT22;530;51.448;7.238;2023-06-24T10:06:41;25.60;99.90
1083;DHT22;530;51.448;7.238;2023-06-24T10:09:08;25.70;99.90
1083;DHT22;530;51.448;7.238;2023-06-24T10:11:34;25.70;99.90
1083;DHT22;530;51.448;7.238;2023-06-24T10:14:00;25.80;99.90
1083;DHT22;530;51.448;7.238;2023-06-24T10:16:26;26.00;99.90
1083;DHT22;530;51.448;7.238;2023-06-24T10:18:51;26.00;99.90
1083;DHT22;530;51.448;7.238;2023-06-24T10:21:17;26.10;99.90
1083;DHT22;530;51.448;7.238;2023-06-24T10:23:52;26.20;99.90
1083;DHT22;530;51.448;7.238;2023-06-24T10:26:28;26.20;99.90
1083;DHT22;530;51.448;7.238;2023-06-24T10:37:05;26.40;99.10
1083;DHT22;530;51.448;7.238;2023-06-24T10:42:41;26.50;99.30
1083;DHT22;530;51.448;7.238;2023-06-24T10:45:14;26.40;98.70
1083;DHT22;530;51.448;7.238;2023-06-24T10:47:51;26.40;98.40
1083;DHT22;530;51.448;7.238;2023-06-24T10:50:22;26.40;98.60
1083;DHT22;530;51.448;7.238;2023-06-24T10:52:51;26.40;98.40
1083;DHT22;530;51.448;7.238;2023-06-24T10:55:22;26.40;97.70
1083;DHT22;530;51.448;7.238;2023-06-24T10:57:49;26.50;98.30
1083;DHT22;530;51.448;7.238;2023-06-24T11:00:15;26.50;97.20
1083;DHT22;530;51.448;7.238;2023-06-24T11:02:41;26.60;98.10
1083;DHT22;530;51.448;7.238;2023-06-24T11:05:07;26.70;98.00
1083;DHT22;530;51.448;7.238;2023-06-24T11:07:39;26.70;97.80
1083;DHT22;530;51.448;7.238;2023-06-24T11:10:06;26.80;97.90
1083;DHT22;530;51.448;7.238;2023-06-24T11:12:34;26.80;97.50
1083;DHT22;530;51.448;7.238;2023-06-24T11:15:06;26.90;96.40
1083;DHT22;530;51.448;7.238;2023-06-24T11:17:34;26.90;96.20
1083;DHT22;530;51.448;7.238;2023-06-24T11:20:00;27.00;96.20
1083;DHT22;530;51.448;7.238;2023-06-24T11:22:26;27.00;96.20
1083;DHT22;530;51.448;7.238;2023-06-24T11:24:53;27.00;95.30
1083;DHT22;530;51.448;7.238;2023-06-24T11:27:29;27.00;93.20
1083;DHT22;530;51.448;7.238;2023-06-24T11:29:58;26.90;93.30
1083;DHT22;530;51.448;7.238;2023-06-24T11:32:24;26.90;93.30
1083;DHT22;530;51.448;7.238;2023-06-24T11:34:50;27.00;93.20
1083;DHT22;530;51.448;7.238;2023-06-24T11:37:18;27.10;93.50
1083;DHT22;530;51.448;7.238;2023-06-24T11:39:44;27.20;91.50
1083;DHT22;530;51.448;7.238;2023-06-24T11:42:10;27.30;91.60
1083;DHT22;530;51.448;7.238;2023-06-24T11:44:41;27.20;81.50
1083;DHT22;530;51.448;7.238;2023-06-24T11:47:10;27.30;88.60
1083;DHT22;530;51.448;7.238;2023-06-24T11:50:00;27.30;88.10
1083;DHT22;530;51.448;7.238;2023-06-24T11:52:45;27.40;90.90
1083;DHT22;530;51.448;7.238;2023-06-24T11:55:17;27.50;91.80
1083;DHT22;530;51.448;7.238;2023-06-24T11:57:57;27.40;86.90
1083;DHT22;530;51.448;7.238;2023-06-24T12:00:31;27.40;90.40
1083;DHT22;530;51.448;7.238;2023-06-24T12:03:04;27.30;87.70
1083;DHT22;530;51.448;7.238;2023-06-24T12:05:31;27.40;89.70
1083;DHT22;530;51.448;7.238;2023-06-24T12:08:00;27.40;88.60
1083;DHT22;530;51.448;7.238;2023-06-24T12:10:27;27.30;88.90
1083;DHT22;530;51.448;7.238;2023-06-24T12:12:52;27.30;91.20
1083;DHT22;530;51.448;7.238;2023-06-24T12:15:19;27.40;90.20
1083;DHT22;530;51.448;7.238;2023-06-24T12:17:44;27.40;90.90
1083;DHT22;530;51.448;7.238;2023-06-24T12:20:11;27.40;91.50
1083;DHT22;530;51.448;7.238;2023-06-24T12:22:37;27.40;90.40
1083;DHT22;530;51.448;7.238;2023-06-24T12:25:03;27.40;89.50
1083;DHT22;530;51.448;7.238;2023-06-24T12:27:29;27.40;88.90
1083;DHT22;530;51.448;7.238;2023-06-24T12:29:54;27.40;87.70
1083;DHT22;530;51.448;7.238;2023-06-24T12:32:20;27.40;87.80
1083;DHT22;530;51.448;7.238;2023-06-24T12:34:46;27.40;82.40
1083;DHT22;530;51.448;7.238;2023-06-24T12:37:11;27.40;80.30
1083;DHT22;530;51.448;7.238;2023-06-24T12:39:38;27.40;84.80
1083;DHT22;530;51.448;7.238;2023-06-24T12:42:05;27.40;86.80
1083;DHT22;530;51.448;7.238;2023-06-24T12:44:31;27.40;86.40
1083;DHT22;530;51.448;7.238;2023-06-24T12:46:57;27.40;86.00
1083;DHT22;530;51.448;7.238;2023-06-24T12:49:23;27.40;90.30
1083;DHT22;530;51.448;7.238;2023-06-24T12:51:48;27.40;88.90
1083;DHT22;530;51.448;7.238;2023-06-24T12:54:14;27.40;88.90
1083;DHT22;530;51.448;7.238;2023-06-24T12:56:40;27.50;90.90
1083;DHT22;530;51.448;7.238;2023-06-24T12:59:05;27.50;87.10
1083;DHT22;530;51.448;7.238;2023-06-24T13:01:31;27.50;88.70
1083;DHT22;530;51.448;7.238;2023-06-24T13:03:57;27.60;82.70
1083;DHT22;530;51.448;7.238;2023-06-24T13:06:22;27.60;87.60
1083;DHT22;530;51.448;7.238;2023-06-24T13:08:48;27.60;86.70
1083;DHT22;530;51.448;7.238;2023-06-24T13:11:14;27.70;88.80
1083;DHT22;530;51.448;7.238;2023-06-24T13:13:39;27.80;85.90
1083;DHT22;530;51.448;7.238;2023-06-24T13:16:05;27.80;81.30
1083;DHT22;530;51.448;7.238;2023-06-24T13:18:31;27.80;80.60
1083;DHT22;530;51.448;7.238;2023-06-24T13:20:56;27.80;80.90
1083;DHT22;530;51.448;7.238;2023-06-24T13:23:22;27.80;83.10
1083;DHT22;530;51.448;7.238;2023-06-24T13:25:48;27.80;85.50
1083;DHT22;530;51.448;7.238;2023-06-24T13:28:13;27.90;83.60
1083;DHT22;530;51.448;7.238;2023-06-24T13:30:39;27.90;84.90
1083;DHT22;530;51.448;7.238;2023-06-24T13:33:05;27.90;82.40
1083;DHT22;530;51.448;7.238;2023-06-24T13:35:30;28.00;84.80
1083;DHT22;530;51.448;7.238;2023-06-24T13:37:56;28.00;86.70
1083;DHT22;530;51.448;7.238;2023-06-24T13:40:24;28.10;83.60
1083;DHT22;530;51.448;7.238;2023-06-24T13:42:50;28.00;83.90
1083;DHT22;530;51.448;7.238;2023-06-24T13:45:16;28.00;81.90
1083;DHT22;530;51.448;7.238;2023-06-24T13:47:41;28.10;83.90
1083;DHT22;530;51.448;7.238;2023-06-24T13:50:07;28.10;81.50
1083;DHT22;530;51.448;7.238;2023-06-24T13:52:34;28.20;85.10
1083;DHT22;530;51.448;7.238;2023-06-24T13:55:00;28.20;83.20
1083;DHT22;530;51.448;7.238;2023-06-24T13:57:25;28.20;80.90
1083;DHT22;530;51.448;7.238;2023-06-24T13:59:51;28.30;82.80
1083;DHT22;530;51.448;7.238;2023-06-24T14:02:17;28.30;82.00
1083;DHT22;530;51.448;7.238;2023-06-24T14:04:44;28.40;81.40
1083;DHT22;530;51.448;7.238;2023-06-24T14:07:10;28.40;76.00
1083;DHT22;530;51.448;7.238;2023-06-24T14:09:37;28.40;75.70
1083;DHT22;530;51.448;7.238;2023-06-24T14:12:03;28.40;76.40
1083;DHT22;530;51.448;7.238;2023-06-24T14:14:29;28.50;76.40
1083;DHT22;530;51.448;7.238;2023-06-24T14:16:55;28.40;75.50
1083;DHT22;530;51.448;7.238;2023-06-24T14:19:21;28.40;78.20
1083;DHT22;530;51.448;7.238;2023-06-24T14:21:46;28.40;78.80
1083;DHT22;530;51.448;7.238;2023-06-24T14:24:12;28.40;75.00
1083;DHT22;530;51.448;7.238;2023-06-24T14:26:38;28.40;75.20
1083;DHT22;530;51.448;7.238;2023-06-24T14:29:03;28.40;75.40
1083;DHT22;530;51.448;7.238;2023-06-24T14:31:30;28.40;73.10
1083;DHT22;530;51.448;7.238;2023-06-24T14:33:55;28.40;73.00
1083;DHT22;530;51.448;7.238;2023-06-24T14:36:21;28.40;74.10
1083;DHT22;530;51.448;7.238;2023-06-24T14:38:47;28.40;72.90
1083;DHT22;530;51.448;7.238;2023-06-24T14:41:13;28.40;70.00
1083;DHT22;530;51.448;7.238;2023-06-24T14:43:38;28.40;68.40
1083;DHT22;530;51.448;7.238;2023-06-24T14:46:04;28.30;66.60
1083;DHT22;530;51.448;7.238;2023-06-24T14:48:30;28.20;67.10
1083;DHT22;530;51.448;7.238;2023-06-24T14:50:55;28.10;66.60
1083;DHT22;530;51.448;7.238;2023-06-24T14:53:21;28.10;68.70
1083;DHT22;530;51.448;7.238;2023-06-24T14:55:46;28.10;67.30
1083;DHT22;530;51.448;7.238;2023-06-24T14:58:12;28.00;67.10
1083;DHT22;530;51.448;7.238;2023-06-24T15:00:38;28.00;70.90
1083;DHT22;530;51.448;7.238;2023-06-24T15:03:04;28.00;69.70
1083;DHT22;530;51.448;7.238;2023-06-24T15:05:30;28.00;73.40
1083;DHT22;530;51.448;7.238;2023-06-24T15:07:57;28.00;72.30
1083;DHT22;530;51.448;7.238;2023-06-24T15:10:22;28.00;69.10
1083;DHT22;530;51.448;7.238;2023-06-24T15:12:48;28.00;67.50
1083;DHT22;530;51.448;7.238;2023-06-24T15:15:15;27.90;70.10
1083;DHT22;530;51.448;7.238;2023-06-24T15:17:41;27.80;71.00
1083;DHT22;530;51.448;7.238;2023-06-24T15:20:10;27.80;75.20
1083;DHT22;530;51.448;7.238;2023-06-24T15:22:36;27.80;71.50
1083;DHT22;530;51.448;7.238;2023-06-24T15:25:03;27.80;70.70
1083;DHT22;530;51.448;7.238;2023-06-24T15:27:29;27.80;69.70
1083;DHT22;530;51.448;7.238;2023-06-24T15:29:55;27.80;69.00
1083;DHT22;530;51.448;7.238;2023-06-24T15:32:20;27.70;68.80
1083;DHT22;530;51.448;7.238;2023-06-24T15:34:46;27.70;75.10
1083;DHT22;530;51.448;7.238;2023-06-24T15:37:12;27.70;74.70
1083;DHT22;530;51.448;7.238;2023-06-24T15:39:41;27.70;72.70
1083;DHT22;530;51.448;7.238;2023-06-24T15:42:07;27.70;72.20
1083;DHT22;530;51.448;7.238;2023-06-24T15:44:32;27.70;74.70
1083;DHT22;530;51.448;7.238;2023-06-24T15:46:58;27.70;72.40
1083;DHT22;530;51.448;7.238;2023-06-24T15:49:24;27.70;73.10
1083;DHT22;530;51.448;7.238;2023-06-24T15:51:50;27.70;76.80
1083;DHT22;530;51.448;7.238;2023-06-24T15:54:15;27.60;71.40
1083;DHT22;530;51.448;7.238;2023-06-24T15:56:41;27.60;73.40
1083;DHT22;530;51.448;7.238;2023-06-24T15:59:07;27.60;73.20
1083;DHT22;530;51.448;7.238;2023-06-24T16:01:33;27.70;75.10
1083;DHT22;530;51.448;7.238;2023-06-24T16:03:58;27.70;74.50
1083;DHT22;530;51.448;7.238;2023-06-24T16:06:24;27.70;73.00
1083;DHT22;530;51.448;7.238;2023-06-24T16:08:50;27.70;71.40
1083;DHT22;530;51.448;7.238;2023-06-24T16:11:16;27.70;72.60
1083;DHT22;530;51.448;7.238;2023-06-24T16:13:42;27.60;70.70
1083;DHT22;530;51.448;7.238;2023-06-24T16:16:08;27.60;72.70
1083;DHT22;530;51.448;7.238;2023-06-24T16:18:33;27.60;73.80
1083;DHT22;530;51.448;7.238;2023-06-24T16:20:59;27.60;72.90
1083;DHT22;530;51.448;7.238;2023-06-24T16:23:25;27.50;73.90
1083;DHT22;530;51.448;7.238;2023-06-24T16:25:50;27.60;75.10
1083;DHT22;530;51.448;7.238;2023-06-24T16:28:16;27.50;73.50
1083;DHT22;530;51.448;7.238;2023-06-24T16:30:42;27.50;76.30
1083;DHT22;530;51.448;7.238;2023-06-24T16:33:08;27.50;72.50
1083;DHT22;530;51.448;7.238;2023-06-24T16:35:34;27.50;70.20
1083;DHT22;530;51.448;7.238;2023-06-24T16:38:00;27.40;70.70
1083;DHT22;530;51.448;7.238;2023-06-24T16:40:25;27.40;74.10